createdAt,value
2022-08-09T00:00:21.717Z,2.55
2022-08-09T00:02:51.767Z,2.20
2022-08-09T00:06:19.737Z,3.40
2022-08-09T00:08:12.960Z,2.53
2022-08-09T00:11:05.834Z,3.80
2022-08-09T00:13:49.681Z,2.13
2022-08-09T00:16:17.859Z,3.08
2022-08-09T00:18:53.884Z,2.72
2022-08-09T00:21:21.193Z,2.38
2022-08-09T00:23:55.015Z,2.45
2022-08-09T00:26:33.044Z,1.90
2022-08-09T00:29:02.068Z,1.88
2022-08-09T00:31:59.336Z,1.88
2022-08-09T00:34:19.511Z,2.10
2022-08-09T00:36:48.760Z,1.67
2022-08-09T00:40:12.636Z,1.95
2022-08-09T00:44:10.258Z,2.97
2022-08-09T00:44:52.015Z,1.40
2022-08-09T00:47:21.760Z,2.47
2022-08-09T00:49:54.965Z,2.40
2022-08-09T00:52:30.139Z,1.50
2022-08-09T00:55:00.225Z,2.33
2022-08-09T00:57:34.447Z,1.67
2022-08-09T01:03:03.508Z,1.80
2022-08-09T01:05:54.025Z,1.63
2022-08-09T01:08:49.002Z,1.50
2022-08-09T01:14:21.833Z,2.72
2022-08-09T01:16:58.782Z,1.80
2022-08-09T01:19:57.252Z,1.80
2022-08-09T01:23:00.079Z,1.70
2022-08-09T01:25:57.094Z,2.05
2022-08-09T01:28:26.220Z,1.30
2022-08-09T01:30:59.117Z,1.48
2022-08-09T01:33:29.734Z,1.38
2022-08-09T01:36:13.711Z,1.27
2022-08-09T01:38:46.479Z,0.98
2022-08-09T01:41:25.566Z,1.83
2022-08-09T01:43:57.273Z,1.85
2022-08-09T01:46:33.329Z,1.35
2022-08-09T01:49:10.465Z,1.15
2022-08-09T01:51:53.871Z,1.65
2022-08-09T01:54:33.421Z,1.35
2022-08-09T01:57:11.804Z,1.27
2022-08-09T01:59:51.768Z,1.23
2022-08-09T02:02:31.007Z,2.08
2022-08-09T02:05:15.309Z,1.20
2022-08-09T02:08:41.054Z,1.33
2022-08-09T02:10:51.013Z,1.23
2022-08-09T02:13:22.138Z,1.20
2022-08-09T02:15:56.749Z,1.40
2022-08-09T02:18:31.028Z,1.48
2022-08-09T02:21:11.722Z,1.30
2022-08-09T02:23:54.750Z,1.13
2022-08-09T02:26:27.030Z,1.35
2022-08-09T02:28:59.646Z,1.20
2022-08-09T02:31:34.222Z,1.58
2022-08-09T02:34:13.714Z,1.63
2022-08-09T02:36:56.374Z,1.40
2022-08-09T02:39:42.132Z,1.15
2022-08-09T02:42:24.786Z,2.15
2022-08-09T02:45:03.707Z,0.80
2022-08-09T02:47:33.884Z,2.45
2022-08-09T02:50:25.426Z,1.08
2022-08-09T02:53:07.746Z,1.52
2022-08-09T02:55:46.882Z,1.10
2022-08-09T02:58:35.628Z,2.35
2022-08-09T03:01:07.827Z,1.83
2022-08-09T03:04:16.884Z,1.67
2022-08-09T03:06:27.985Z,1.13
2022-08-09T03:08:57.595Z,1.42
2022-08-09T03:11:29.787Z,1.23
2022-08-09T03:14:15.869Z,0.93
2022-08-09T03:16:45.324Z,0.95
2022-08-09T03:19:59.089Z,1.27
2022-08-09T03:22:11.813Z,1.52
2022-08-09T03:24:52.053Z,1.33
2022-08-09T03:27:21.713Z,1.05
2022-08-09T03:29:58.084Z,1.35
2022-08-09T03:32:31.670Z,1.45
2022-08-09T03:35:00.710Z,1.60
2022-08-09T03:37:55.582Z,1.60
2022-08-09T03:40:17.967Z,1.10
2022-08-09T03:42:46.804Z,1.50
2022-08-09T03:45:15.605Z,1.73
2022-08-09T03:47:46.627Z,1.15
2022-08-09T03:50:27.649Z,1.27
2022-08-09T03:52:59.763Z,1.10
2022-08-09T03:55:29.994Z,1.00
2022-08-09T03:58:10.061Z,1.27
2022-08-09T04:00:47.814Z,1.17
2022-08-09T04:03:24.845Z,1.38
2022-08-09T04:06:04.553Z,1.50
2022-08-09T04:08:32.801Z,0.98
2022-08-09T04:11:01.647Z,1.83
2022-08-09T04:14:37.724Z,1.25
2022-08-09T04:16:20.567Z,1.73
2022-08-09T04:18:49.231Z,2.80
2022-08-09T04:21:19.079Z,1.15
2022-08-09T04:23:53.751Z,1.70
2022-08-09T04:26:23.347Z,1.10
2022-08-09T04:28:53.116Z,1.17
2022-08-09T04:31:22.440Z,1.83
2022-08-09T04:33:57.086Z,1.50
2022-08-09T04:36:28.921Z,1.27
2022-08-09T04:38:59.512Z,3.50
2022-08-09T04:41:32.222Z,1.05
2022-08-09T04:44:09.340Z,0.95
2022-08-09T04:46:57.035Z,2.92
2022-08-09T04:49:52.196Z,1.20
2022-08-09T04:52:18.552Z,1.05
2022-08-09T04:54:53.282Z,1.67
2022-08-09T04:57:24.039Z,1.25
2022-08-09T04:59:54.739Z,1.27
2022-08-09T05:02:23.213Z,1.20
2022-08-09T05:04:55.541Z,2.05
2022-08-09T05:07:24.193Z,2.72
2022-08-09T05:09:51.543Z,1.23
2022-08-09T05:12:19.054Z,1.65
2022-08-09T05:14:50.271Z,1.83
2022-08-09T05:18:37.691Z,0.82
2022-08-09T05:20:06.603Z,0.80
2022-08-09T05:23:51.061Z,1.25
2022-08-09T05:25:22.113Z,1.10
2022-08-09T05:27:50.881Z,1.88
2022-08-09T05:30:19.536Z,1.90
2022-08-09T05:32:51.247Z,1.15
2022-08-09T05:35:21.979Z,1.48
2022-08-09T05:37:51.006Z,1.30
2022-08-09T05:40:18.836Z,1.38
2022-08-09T05:42:47.060Z,1.58
2022-08-09T05:45:14.904Z,2.92
2022-08-09T05:47:52.189Z,1.88
2022-08-09T05:50:39.875Z,1.33
2022-08-09T05:53:21.771Z,2.25
2022-08-09T05:55:59.932Z,1.70
2022-08-09T05:58:29.013Z,1.20
2022-08-09T06:00:56.291Z,1.60
2022-08-09T06:03:25.563Z,1.58
2022-08-09T06:06:06.166Z,1.88
2022-08-09T06:08:34.059Z,2.47
2022-08-09T06:11:01.607Z,2.05
2022-08-09T06:13:45.864Z,5.75
2022-08-09T06:16:14.957Z,3.53
2022-08-09T06:18:43.781Z,6.35
2022-08-09T06:21:11.150Z,8.75
2022-08-09T06:23:57.135Z,11.43
2022-08-09T06:26:28.513Z,12.75
2022-08-09T06:29:00.132Z,12.15
2022-08-09T06:31:40.221Z,11.93
2022-08-09T06:34:23.679Z,38.40
2022-08-09T06:36:59.597Z,26.65
2022-08-09T06:39:48.248Z,37.53
2022-08-09T06:42:17.312Z,36.38
2022-08-09T06:44:51.766Z,17.15
2022-08-09T06:47:22.246Z,22.27
2022-08-09T06:50:14.671Z,23.20
2022-08-09T06:52:47.257Z,16.08
2022-08-09T06:55:22.950Z,14.77
2022-08-09T06:58:03.469Z,15.57
2022-08-09T07:00:56.139Z,16.40
2022-08-09T07:03:27.669Z,16.67
2022-08-09T07:08:32.102Z,8.63
2022-08-09T07:10:59.382Z,11.82
2022-08-09T07:13:29.450Z,12.60
2022-08-09T07:16:41.708Z,10.73
2022-08-09T07:18:47.555Z,13.55
2022-08-09T07:21:17.713Z,14.68
2022-08-09T07:23:56.415Z,12.60
2022-08-09T07:26:25.993Z,8.63
2022-08-09T07:29:09.093Z,12.68
2022-08-09T07:31:45.266Z,8.35
2022-08-09T07:34:19.417Z,7.75
2022-08-09T07:36:48.736Z,7.72
2022-08-09T07:39:20.273Z,11.82
2022-08-09T07:42:04.349Z,7.55
2022-08-09T07:44:50.786Z,9.75
2022-08-09T07:47:21.053Z,9.07
2022-08-09T07:50:05.159Z,7.47
2022-08-09T07:52:36.680Z,8.38
2022-08-09T07:55:09.765Z,11.20
2022-08-09T07:57:47.176Z,11.10
2022-08-09T08:00:20.159Z,17.38
2022-08-09T08:03:04.558Z,12.68
2022-08-09T08:05:39.109Z,16.67
2022-08-09T08:09:02.747Z,12.25
2022-08-09T08:12:10.553Z,15.30
2022-08-09T08:13:56.554Z,15.52
2022-08-09T08:16:29.992Z,15.07
2022-08-09T08:18:59.633Z,13.48
2022-08-09T08:21:30.728Z,12.68
2022-08-09T08:24:00.892Z,20.08
2022-08-09T08:26:41.976Z,15.90
2022-08-09T08:29:20.427Z,13.43
2022-08-09T08:32:03.248Z,16.58
2022-08-09T08:34:33.622Z,12.95
2022-08-09T08:37:02.429Z,14.43
2022-08-09T08:39:39.283Z,9.15
2022-08-09T08:42:11.202Z,13.07
2022-08-09T08:44:39.446Z,13.38
2022-08-09T08:47:12.846Z,11.05
2022-08-09T08:49:48.686Z,11.00
2022-08-09T08:52:57.591Z,10.25
2022-08-09T08:55:11.142Z,9.75
2022-08-09T08:57:41.465Z,10.85
2022-08-09T09:00:17.183Z,10.30
2022-08-09T09:02:52.767Z,12.88
2022-08-09T09:05:33.053Z,8.20
2022-08-09T09:08:29.722Z,12.13
2022-08-09T09:11:02.777Z,8.13
2022-08-09T09:13:55.561Z,7.53
2022-08-09T09:16:33.763Z,8.68
2022-08-09T09:22:11.908Z,6.72
2022-08-09T09:24:47.681Z,7.47
2022-08-09T09:28:03.608Z,7.05
2022-08-09T09:30:28.835Z,7.63
2022-08-09T09:33:14.352Z,6.80
2022-08-09T09:36:02.045Z,5.40
2022-08-09T09:38:50.130Z,5.28
2022-08-09T09:41:23.550Z,6.28
2022-08-09T09:44:10.564Z,7.17
2022-08-09T09:46:45.644Z,6.10
2022-08-09T09:49:32.130Z,4.45
2022-08-09T09:52:33.486Z,4.55
2022-08-09T09:55:28.708Z,4.28
2022-08-09T09:58:03.825Z,5.45
2022-08-09T10:00:33.663Z,4.28
2022-08-09T10:03:11.808Z,3.63
2022-08-09T10:06:04.772Z,4.97
2022-08-09T10:08:32.537Z,9.98
2022-08-09T10:12:00.496Z,4.97
2022-08-09T10:14:30.944Z,6.15
2022-08-09T10:17:24.311Z,5.85
2022-08-09T10:20:06.215Z,4.25
2022-08-09T10:22:42.672Z,2.25
2022-08-09T10:25:14.190Z,3.53
2022-08-09T10:27:57.845Z,3.35
2022-08-09T10:34:04.456Z,3.13
2022-08-09T10:36:04.873Z,4.32
2022-08-09T10:38:54.336Z,4.45
2022-08-09T10:41:20.443Z,3.08
2022-08-09T10:43:59.766Z,2.28
2022-08-09T10:46:57.544Z,2.17
2022-08-09T10:49:51.617Z,3.22
2022-08-09T10:52:26.428Z,2.28
2022-08-09T10:54:54.142Z,2.30
2022-08-09T10:57:23.423Z,3.58
2022-08-09T10:59:57.937Z,3.33
2022-08-09T11:03:14.669Z,2.65
2022-08-09T11:05:30.047Z,2.05
2022-08-09T11:08:18.156Z,1.60
2022-08-09T11:11:00.557Z,2.08
2022-08-09T11:13:51.106Z,2.20
2022-08-09T11:16:37.233Z,1.92
2022-08-09T11:19:09.470Z,3.13
2022-08-09T11:22:18.597Z,2.40
2022-08-09T11:25:05.538Z,1.33
2022-08-09T11:28:03.147Z,1.80
2022-08-09T11:30:32.975Z,2.28
2022-08-09T11:33:17.708Z,1.40
2022-08-09T11:35:49.854Z,1.63
2022-08-09T11:38:33.888Z,2.58
2022-08-09T11:41:14.168Z,0.68
2022-08-09T11:43:52.713Z,1.92
2022-08-09T11:46:33.008Z,1.75
2022-08-09T11:49:05.293Z,1.23
2022-08-09T11:53:16.041Z,2.88
2022-08-09T11:55:35.137Z,1.23
2022-08-09T11:58:15.468Z,1.67
2022-08-09T12:00:52.842Z,1.13
2022-08-09T12:03:55.626Z,1.48
2022-08-09T12:06:26.436Z,1.63
2022-08-09T12:08:55.948Z,1.83
2022-08-09T12:11:25.645Z,1.77
2022-08-09T12:14:07.947Z,1.23
2022-08-09T12:16:41.675Z,1.50
2022-08-09T12:19:13.158Z,1.45
2022-08-09T12:21:48.611Z,1.35
2022-08-09T12:24:26.320Z,1.38
2022-08-09T12:29:15.213Z,2.53
2022-08-09T12:30:02.089Z,2.40
2022-08-09T12:32:44.774Z,1.27
2022-08-09T12:35:17.111Z,1.20
2022-08-09T12:37:49.982Z,1.65
2022-08-09T12:40:19.202Z,2.33
2022-08-09T12:42:50.626Z,0.70
2022-08-09T12:45:32.536Z,1.48
2022-08-09T12:48:04.000Z,3.22
2022-08-09T12:50:32.109Z,1.67
2022-08-09T12:53:18.436Z,1.80
2022-08-09T12:56:13.056Z,1.40
2022-08-09T12:58:34.465Z,1.55
2022-08-09T13:01:26.691Z,0.75
2022-08-09T13:04:04.029Z,1.75
2022-08-09T13:06:37.503Z,0.80
2022-08-09T13:09:24.096Z,0.77
2022-08-09T13:12:01.828Z,1.02
2022-08-09T13:14:42.268Z,0.80
2022-08-09T13:17:43.718Z,0.55
2022-08-09T13:20:14.036Z,1.42
2022-08-09T13:23:06.042Z,0.82
2022-08-09T13:25:54.801Z,1.20
2022-08-09T13:28:33.931Z,1.98
2022-08-09T13:32:13.559Z,1.15
2022-08-09T13:33:58.669Z,1.30
2022-08-09T13:36:41.158Z,1.17
2022-08-09T13:41:19.118Z,0.93
2022-08-09T13:42:11.977Z,1.30
2022-08-09T13:44:42.081Z,2.03
2022-08-09T13:47:26.850Z,1.20
2022-08-09T13:50:12.568Z,1.13
2022-08-09T13:52:47.590Z,1.40
2022-08-09T13:55:17.819Z,1.40
2022-08-09T13:57:55.933Z,0.87
2022-08-09T14:00:28.537Z,0.47
2022-08-09T14:03:02.889Z,1.15
2022-08-09T14:05:58.353Z,1.10
2022-08-09T14:08:30.631Z,1.13
2022-08-09T14:11:00.581Z,2.13
2022-08-09T14:14:22.320Z,1.63
2022-08-09T14:16:28.459Z,1.02
2022-08-09T14:18:59.401Z,4.00
2022-08-09T14:21:29.161Z,3.75
2022-08-09T14:24:01.016Z,1.60
2022-08-09T14:26:33.745Z,1.90
2022-08-09T14:29:08.184Z,1.50
2022-08-09T14:31:54.538Z,1.20
2022-08-09T14:34:27.367Z,0.85
2022-08-09T14:37:02.291Z,1.98
2022-08-09T14:39:40.057Z,0.77
2022-08-09T14:42:08.707Z,2.13
2022-08-09T14:44:48.200Z,2.63
2022-08-09T14:47:39.916Z,2.47
2022-08-09T14:50:05.367Z,1.83
2022-08-09T14:52:35.578Z,1.42
2022-08-09T14:55:03.332Z,0.55
2022-08-09T14:57:31.914Z,1.42
2022-08-09T15:00:11.101Z,0.35
2022-08-09T15:02:40.175Z,1.08
2022-08-09T15:05:10.439Z,1.50
2022-08-09T15:07:37.972Z,0.63
2022-08-09T15:10:14.201Z,1.35
2022-08-09T15:12:45.107Z,2.22
2022-08-09T15:15:13.027Z,1.05
2022-08-09T15:17:42.127Z,1.08
2022-08-09T15:20:15.276Z,2.13
2022-08-09T15:22:46.709Z,2.20
2022-08-09T15:25:15.303Z,1.38
2022-08-09T15:28:03.867Z,0.90
2022-08-09T15:31:01.120Z,3.58
2022-08-09T15:34:31.754Z,2.13
2022-08-09T15:36:28.885Z,0.77
2022-08-09T15:38:58.679Z,2.10
2022-08-09T15:41:31.146Z,3.22
2022-08-09T15:44:00.513Z,0.70
2022-08-09T15:46:33.696Z,1.15
2022-08-09T15:49:22.015Z,0.50
2022-08-09T15:52:03.459Z,1.23
2022-08-09T15:54:49.078Z,0.40
2022-08-09T15:57:35.967Z,1.40
2022-08-09T16:00:24.622Z,0.87
2022-08-09T16:02:56.096Z,2.47
2022-08-09T16:05:47.123Z,1.63
2022-08-09T16:08:29.610Z,1.55
2022-08-09T16:10:57.823Z,1.50
2022-08-09T16:14:04.018Z,1.85
2022-08-09T16:16:17.424Z,3.47
2022-08-09T16:18:47.059Z,9.40
2022-08-09T16:21:17.571Z,11.13
2022-08-09T16:23:58.540Z,13.77
2022-08-09T16:26:35.171Z,8.25
2022-08-09T16:29:12.737Z,11.48
2022-08-09T16:32:19.619Z,14.13
2022-08-09T16:34:55.325Z,10.48
2022-08-09T16:37:55.328Z,4.45
2022-08-09T16:40:14.561Z,8.73
2022-08-09T16:42:57.855Z,4.53
2022-08-09T16:45:25.144Z,5.43
2022-08-09T16:48:50.539Z,4.05
2022-08-09T16:50:49.730Z,8.77
2022-08-09T16:53:34.033Z,13.70
2022-08-09T16:56:06.231Z,9.20
2022-08-09T16:58:39.854Z,8.82
2022-08-09T17:01:10.386Z,6.65
2022-08-09T17:03:38.228Z,5.05
2022-08-09T17:06:31.223Z,7.43
2022-08-09T17:09:09.469Z,5.03
2022-08-09T17:11:44.386Z,4.18
2022-08-09T17:14:25.486Z,2.78
2022-08-09T17:16:54.472Z,1.98
2022-08-09T17:19:22.086Z,8.70
2022-08-09T17:21:54.659Z,11.25
2022-08-09T17:24:30.245Z,13.00
2022-08-09T17:26:58.603Z,24.55
2022-08-09T17:29:31.667Z,23.17
2022-08-09T17:32:05.222Z,18.17
2022-08-09T17:35:07.583Z,17.83
2022-08-09T17:37:21.267Z,18.27
2022-08-09T17:39:53.176Z,13.30
2022-08-09T17:42:41.104Z,10.70
2022-08-09T17:45:15.991Z,10.27
2022-08-09T17:47:55.880Z,11.40
2022-08-09T17:50:37.221Z,14.05
2022-08-09T17:53:19.202Z,40.78
2022-08-09T17:55:51.951Z,34.58
2022-08-09T17:58:26.709Z,24.52
2022-08-09T18:00:56.296Z,20.60
2022-08-09T18:03:24.941Z,25.25
2022-08-09T18:05:52.944Z,18.52
2022-08-09T18:08:22.133Z,18.00
2022-08-09T18:11:01.726Z,18.95
2022-08-09T18:13:39.685Z,22.67
2022-08-09T18:16:11.294Z,12.77
2022-08-09T18:18:42.960Z,13.45
2022-08-09T18:21:18.857Z,11.15
2022-08-09T18:24:12.823Z,9.68
2022-08-09T18:26:45.927Z,8.32
2022-08-09T18:30:38.192Z,13.18
2022-08-09T18:32:03.474Z,12.52
2022-08-09T18:34:35.130Z,8.20
2022-08-09T18:37:10.249Z,10.45
2022-08-09T18:39:54.042Z,7.60
2022-08-09T18:42:21.605Z,8.70
2022-08-09T18:44:57.085Z,14.10
2022-08-09T18:47:37.370Z,7.18
2022-08-09T18:50:09.124Z,7.05
2022-08-09T18:52:37.956Z,10.68
2022-08-09T18:55:13.755Z,7.30
2022-08-09T18:57:43.522Z,12.25
2022-08-09T19:00:20.421Z,11.80
2022-08-09T19:02:50.970Z,5.90
2022-08-09T19:05:49.037Z,9.70
2022-08-09T19:08:10.704Z,20.38
2022-08-09T19:10:41.508Z,14.80
2022-08-09T19:13:17.198Z,13.23
2022-08-09T19:15:50.918Z,10.77
2022-08-09T19:18:35.115Z,10.07
2022-08-09T19:21:09.384Z,11.60
2022-08-09T19:24:33.433Z,5.43
2022-08-09T19:26:31.115Z,8.23
2022-08-09T19:29:01.749Z,6.50
2022-08-09T19:31:43.953Z,5.68
2022-08-09T19:34:21.938Z,6.27
2022-08-09T19:36:51.641Z,8.88
2022-08-09T19:39:20.813Z,6.45
2022-08-09T19:42:06.904Z,4.82
2022-08-09T19:44:34.929Z,8.55
2022-08-09T19:47:02.254Z,6.05
2022-08-09T19:50:07.565Z,9.32
2022-08-09T19:52:18.282Z,7.50
2022-08-09T19:54:46.053Z,11.40
2022-08-09T19:57:13.308Z,10.10
2022-08-09T20:00:06.682Z,17.27
2022-08-09T20:04:11.215Z,27.88
2022-08-09T20:05:16.463Z,26.17
2022-08-09T20:07:59.644Z,21.27
2022-08-09T20:10:36.206Z,15.35
2022-08-09T20:13:06.862Z,7.93
2022-08-09T20:16:33.583Z,10.98
2022-08-09T20:18:27.777Z,8.93
2022-08-09T20:20:56.063Z,9.30
2022-08-09T20:23:39.080Z,8.48
2022-08-09T20:26:08.581Z,7.35
2022-08-09T20:28:47.898Z,4.93
2022-08-09T20:31:16.289Z,5.05
2022-08-09T20:33:44.734Z,4.50
2022-08-09T20:36:12.692Z,2.58
2022-08-09T20:41:35.545Z,5.47
2022-08-09T20:44:09.985Z,6.68
2022-08-09T20:46:43.176Z,3.55
2022-08-09T20:49:14.009Z,6.57
2022-08-09T20:51:44.153Z,3.90
2022-08-09T20:54:16.424Z,3.10
2022-08-09T20:56:47.044Z,3.60
2022-08-09T20:59:17.290Z,3.15
2022-08-09T21:01:51.360Z,2.00
2022-08-09T21:05:57.931Z,2.97
2022-08-09T21:07:11.751Z,5.85
2022-08-09T21:09:56.337Z,2.80
2022-08-09T21:15:15.233Z,4.07
2022-08-09T21:18:22.311Z,2.40
2022-08-09T21:20:32.111Z,1.75
2022-08-09T21:23:00.790Z,2.33
2022-08-09T21:25:55.979Z,2.05
2022-08-09T21:28:34.894Z,2.75
2022-08-09T21:31:17.668Z,1.42
2022-08-09T21:33:50.693Z,2.60
2022-08-09T21:36:25.923Z,3.78
2022-08-09T21:38:57.249Z,1.65
2022-08-09T21:42:05.739Z,2.08
2022-08-09T21:44:33.181Z,3.33
2022-08-09T21:47:07.839Z,1.00
2022-08-09T21:49:40.093Z,2.08
2022-08-09T21:52:17.301Z,1.58
2022-08-09T21:55:02.827Z,2.33
2022-08-09T21:57:39.417Z,1.45
2022-08-09T22:00:32.287Z,1.55
2022-08-09T22:03:02.704Z,1.67
2022-08-09T22:05:35.852Z,1.13
2022-08-09T22:08:13.856Z,2.63
2022-08-09T22:11:49.947Z,1.33
2022-08-09T22:13:36.715Z,1.75
2022-08-09T22:16:09.031Z,0.82
2022-08-09T22:18:52.813Z,0.98
2022-08-09T22:21:45.057Z,1.35
2022-08-09T22:24:16.626Z,1.10
2022-08-09T22:26:51.251Z,1.08
2022-08-09T22:31:57.125Z,2.55
2022-08-09T22:34:26.631Z,2.53
2022-08-09T22:36:58.660Z,0.52
2022-08-09T22:39:56.360Z,1.20
2022-08-09T22:42:22.324Z,1.70
2022-08-09T22:45:00.178Z,0.60
2022-08-09T22:48:12.380Z,1.17
2022-08-09T22:50:32.176Z,1.50
2022-08-09T22:53:03.513Z,0.60
2022-08-09T22:56:06.437Z,0.85
2022-08-09T22:58:20.149Z,0.77
2022-08-09T23:00:58.638Z,1.05
2022-08-09T23:04:02.802Z,0.80
2022-08-09T23:06:14.055Z,0.65
2022-08-09T23:08:44.864Z,0.82
2022-08-09T23:11:20.586Z,0.40
2022-08-09T23:13:53.251Z,0.77
2022-08-09T23:16:24.202Z,0.80
2022-08-09T23:18:51.458Z,0.70
2022-08-09T23:21:24.589Z,0.70
2022-08-09T23:24:05.098Z,0.60
2022-08-09T23:26:37.740Z,1.45
2022-08-09T23:29:14.052Z,0.77
2022-08-09T23:31:41.970Z,0.73
2022-08-09T23:34:09.394Z,0.40
2022-08-09T23:36:37.066Z,0.57
2022-08-09T23:39:07.123Z,1.13
2022-08-09T23:41:35.510Z,0.50
2022-08-09T23:44:03.753Z,1.08
2022-08-09T23:46:31.945Z,0.82
2022-08-09T23:48:59.855Z,0.50
2022-08-09T23:51:27.791Z,0.80
2022-08-09T23:54:02.047Z,0.93
2022-08-09T23:56:52.173Z,0.50
2022-08-09T23:59:20.884Z,0.40
